Time;durP1;ratioP1;P1;durP2;ratioP2;P2;SDS_P1;SDS_P2;PMS_P1;PMS_P2;Temp;Humidity;BMP_temperature;BMP_pressure;BME280_temperature;BME280_humidity;BME280_pressure;Samples;Min_cycle;Max_cycle;Signal;HPM_P1;HPM_P2
2023/04/20 00:01:36;;;;;;;28.63;1.97;;;;;;;22.56;58.95;99707.03;7315581;19;129432;-35
2023/04/20 00:04:01;;;;;;;51.87;3.57;;;;;;;22.56;59.15;99697.34;7316282;19;130173;-36
2023/04/20 00:06:31;;;;;;;32.73;2.23;;;;;;;22.48;59.22;99693.75;7317677;19;130240;-34
2023/04/20 00:08:57;;;;;;;25.88;1.95;;;;;;;22.53;59.45;99699.44;7315913;19;129245;-37
2023/04/20 00:11:22;;;;;;;32.22;2.15;;;;;;;22.54;59.13;99698.47;7317165;19;132189;-33
2023/04/20 00:13:48;;;;;;;78.97;4.87;;;;;;;22.45;58.58;99687.03;7316603;19;129388;-36
2023/04/20 00:16:13;;;;;;;37.72;2.53;;;;;;;22.54;59.01;99694.06;7315939;19;130434;-37
2023/04/20 00:18:39;;;;;;;39.00;2.60;;;;;;;22.54;58.89;99698.47;7314331;19;128999;-28
2023/04/20 00:21:04;;;;;;;34.17;2.40;;;;;;;22.53;59.11;99686.34;7315719;19;128908;-34
2023/04/20 00:23:30;;;;;;;71.70;4.40;;;;;;;22.53;58.94;99691.56;7314101;19;130187;-34
2023/04/20 00:25:55;;;;;;;31.45;1.98;;;;;;;22.55;58.59;99687.03;7316286;19;129993;-34
2023/04/20 00:28:21;;;;;;;27.07;2.13;;;;;;;22.55;58.50;99684.41;7316430;19;129457;-37
2023/04/20 00:30:46;;;;;;;36.00;2.33;;;;;;;22.53;59.11;99687.16;7316109;19;129422;-35
2023/04/20 00:33:11;;;;;;;57.37;3.87;;;;;;;22.52;58.71;99689.91;7313723;19;130134;-40
2023/04/20 00:35:37;;;;;;;48.47;3.13;;;;;;;22.50;58.69;99686.59;7317229;19;131264;-32
2023/04/20 00:38:02;;;;;;;26.83;1.92;;;;;;;22.51;59.05;99683.03;7317138;19;129131;-38
2023/04/20 00:40:27;;;;;;;42.03;2.67;;;;;;;22.49;58.46;99677.94;7315445;19;129448;-30
2023/04/20 00:42:53;;;;;;;55.28;3.55;;;;;;;22.51;58.55;99688.25;7313261;19;130327;-36
2023/04/20 00:45:20;;;;;;;63.40;4.38;;;;;;;22.51;59.15;99688.25;7317135;19;130180;-35
2023/04/20 00:47:46;;;;;;;62.25;3.78;;;;;;;22.48;58.70;99683.28;7315173;19;128974;-41
2023/04/20 00:50:11;;;;;;;52.20;3.20;;;;;;;22.41;58.55;99671.75;7313043;19;128987;-33
2023/04/20 00:52:37;;;;;;;37.28;2.58;;;;;;;22.52;58.37;99687.28;7313369;19;129486;-36
2023/04/20 00:55:05;;;;;;;45.00;3.17;;;;;;;22.47;58.99;99692.13;7315308;19;129676;-46
2023/04/20 00:57:31;;;;;;;36.25;2.42;;;;;;;22.48;59.20;99691.13;7316121;19;129238;-32
2023/04/20 00:59:56;;;;;;;42.27;2.77;;;;;;;22.49;58.65;99679.72;7314296;19;129172;-35
2023/04/20 01:02:21;;;;;;;48.92;3.30;;;;;;;22.48;58.90;99683.28;7311878;19;130680;-35
2023/04/20 01:04:47;;;;;;;29.40;2.08;;;;;;;22.49;58.33;99684.94;7313310;19;130282;-34
2023/04/20 01:07:12;;;;;;;46.35;3.08;;;;;;;22.48;58.86;99678.03;7315651;19;130461;-37
2023/04/20 01:09:38;;;;;;;45.22;2.85;;;;;;;22.46;58.54;99680.81;7311754;19;128829;-34
2023/04/20 01:12:05;;;;;;;44.35;2.63;;;;;;;22.47;59.02;99687.72;7311580;19;130334;-41
2023/04/20 01:14:30;;;;;;;;;;;;;;;22.50;59.19;99678.72;7313362;19;130867;-35
2023/04/20 01:16:55;;;;;;;39.88;2.63;;;;;;;22.46;59.19;99680.00;7313193;19;129770;-33
2023/04/20 01:19:21;;;;;;;57.55;3.65;;;;;;;22.47;59.23;99684.25;7311497;19;130004;-33
2023/04/20 01:21:47;;;;;;;49.00;2.97;;;;;;;22.48;59.03;99678.03;7314973;19;128915;-30
2023/04/20 01:24:12;;;;;;;48.70;3.15;;;;;;;22.47;58.89;99673.78;7313735;19;129532;-34
2023/04/20 01:26:38;;;;;;;30.15;2.03;;;;;;;22.46;59.34;99680.00;7314167;19;129061;-37
2023/04/20 01:29:03;;;;;;;46.78;3.03;;;;;;;22.35;59.26;99651.34;7314156;19;128903;-29
2023/04/20 01:31:30;;;;;;;47.50;3.22;;;;;;;22.44;58.83;99666.22;7314882;19;129688;-29
2023/04/20 01:33:55;;;;;;;24.47;1.87;;;;;;;22.44;58.54;99660.97;7313000;19;131060;-29
2023/04/20 01:36:20;;;;;;;39.30;2.60;;;;;;;22.43;58.57;99660.13;7313422;19;129367;-35
2023/04/20 01:38:46;;;;;;;40.20;2.67;;;;;;;22.43;57.76;99668.00;7313926;19;129372;-40
2023/04/20 01:41:12;;;;;;;26.38;1.88;;;;;;;22.42;58.70;99663.75;7316502;19;130123;-35
2023/04/20 01:43:38;;;;;;;44.88;2.88;;;;;;;22.42;58.70;99668.16;7311272;19;129654;-31
2023/04/20 01:46:04;;;;;;;40.15;2.55;;;;;;;22.42;58.25;99658.50;7313197;19;128804;-32
2023/04/20 01:48:30;;;;;;;68.05;4.22;;;;;;;22.42;58.35;99658.50;7311473;19;129524;-37
2023/04/20 01:50:55;;;;;;;19.23;1.48;;;;;;;22.41;58.84;99661.28;7314132;19;129981;-34
2023/04/20 01:53:20;;;;;;;25.73;1.80;;;;;;;22.38;58.97;99651.88;7313117;19;130336;-38
2023/04/20 01:55:46;;;;;;;56.63;3.63;;;;;;;22.39;58.78;99660.56;7312329;19;129065;-31
2023/04/20 01:58:12;;;;;;;52.73;3.20;;;;;;;22.41;58.60;99661.28;7314216;19;129015;-41
2023/04/20 02:00:37;;;;;;;59.75;3.92;;;;;;;22.45;58.90;99657.38;7312353;19;129459;-34
2023/04/20 02:03:03;;;;;;;36.63;2.47;;;;;;;22.46;58.55;99659.03;7310934;19;130480;-37
2023/04/20 02:05:28;;;;;;;40.03;2.63;;;;;;;22.42;58.88;99657.66;7313340;19;128986;-32
2023/04/20 02:07:54;;;;;;;40.80;2.33;;;;;;;22.33;58.66;99637.59;7315013;19;129269;-34
2023/04/20 02:10:19;;;;;;;30.85;2.17;;;;;;;22.42;59.11;99657.66;7314323;19;130028;-41
2023/04/20 02:12:45;;;;;;;55.90;3.67;;;;;;;22.33;58.97;99641.00;7312768;19;129580;-36
2023/04/20 02:15:10;;;;;;;60.28;3.78;;;;;;;22.42;59.02;99647.19;7311889;19;130702;-33
2023/04/20 02:17:36;;;;;;;22.08;1.65;;;;;;;22.31;58.83;99644.75;7313802;19;129573;-31
2023/04/20 02:20:06;;;;;;;28.80;2.00;;;;;;;22.38;58.79;99656.31;7309649;19;131486;-36
2023/04/20 02:22:33;;;;;;;21.10;1.38;;;;;;;22.38;58.82;99654.50;7312592;19;131633;-33
2023/04/20 02:25:00;;;;;;;48.63;3.05;;;;;;;22.38;58.67;99661.56;7311733;19;129808;-30
2023/04/20 02:27:26;;;;;;;;;;;;;;;22.45;58.98;99657.38;7314294;19;129337;-40
2023/04/20 02:29:51;;;;;;;47.92;3.15;;;;;;;22.41;58.89;99662.06;7311522;19;129067;-36
2023/04/20 02:32:16;;;;;;;29.77;1.92;;;;;;;22.39;59.11;99665.81;7311863;19;129263;-32
2023/04/20 02:34:42;;;;;;;47.78;2.95;;;;;;;22.37;58.82;99665.13;7312231;19;129053;-46
2023/04/20 02:37:07;;;;;;;6.97;0.73;;;;;;;22.36;58.56;99672.16;7313845;19;128781;-32
2023/04/20 02:39:32;;;;;;;33.65;2.05;;;;;;;22.38;59.15;99682.50;7312810;19;129184;-36
2023/04/20 02:41:58;;;;;;;42.78;2.85;;;;;;;22.29;58.45;99655.38;7313826;19;129489;-34
2023/04/20 02:44:23;;;;;;;49.63;2.90;;;;;;;22.34;59.11;99662.81;7314842;19;129449;-40
2023/04/20 02:46:49;;;;;;;19.87;1.77;;;;;;;22.37;59.40;99670.38;7310962;19;129042;-41
2023/04/20 02:49:14;;;;;;;25.42;1.63;;;;;;;22.30;58.29;99649.16;7311509;19;130571;-33
2023/04/20 02:51:39;;;;;;;35.03;2.30;;;;;;;22.38;58.78;99659.75;7313712;19;129478;-33
2023/04/20 02:54:05;;;;;;;54.00;3.35;;;;;;;22.37;59.06;99659.88;7312967;19;129320;-39
2023/04/20 02:56:30;;;;;;;10.05;0.90;;;;;;;22.36;59.57;99655.63;7313315;19;129954;-34
2023/04/20 02:58:55;;;;;;;41.35;2.75;;;;;;;22.39;58.94;99663.19;7311130;19;131076;-37
2023/04/20 03:01:21;;;;;;;48.70;2.87;;;;;;;22.38;58.59;99657.13;7313018;19;130434;-38
2023/04/20 03:03:46;;;;;;;16.97;1.40;;;;;;;22.39;58.41;99661.41;7310041;19;129491;-37
2023/04/20 03:06:12;;;;;;;50.03;3.43;;;;;;;22.40;58.95;99654.34;7311246;19;129454;-39
2023/04/20 03:08:37;;;;;;;40.45;2.45;;;;;;;22.35;58.35;99657.41;7311629;19;129456;-32
2023/04/20 03:11:02;;;;;;;46.40;2.70;;;;;;;22.36;58.99;99658.25;7312395;19;130933;-39
2023/04/20 03:13:28;;;;;;;109.05;6.13;;;;;;;22.37;59.07;99660.72;7309772;19;130324;-34
2023/04/20 03:15:53;;;;;;;58.55;3.85;;;;;;;22.38;58.41;99664.19;7311153;19;129484;-41
2023/04/20 03:18:19;;;;;;;56.93;3.40;;;;;;;22.39;59.39;99669.28;7310389;19;129080;-29
2023/04/20 03:20:44;;;;;;;53.88;3.13;;;;;;;22.39;58.61;99669.28;7311214;19;129098;-33
2023/04/20 03:23:10;;;;;;;40.17;2.70;;;;;;;22.36;59.32;99674.78;7311013;19;129546;-47
2023/04/20 03:25:35;;;;;;;29.97;1.90;;;;;;;22.29;58.79;99673.72;7309862;19;129257;-36
2023/04/20 03:28:00;;;;;;;60.90;3.50;;;;;;;22.33;58.97;99674.25;7311315;19;129340;-39
2023/04/20 03:30:26;;;;;;;65.53;3.70;;;;;;;22.35;59.37;99677.53;7311341;19;130483;-36
2023/04/20 03:32:51;;;;;;;29.38;2.05;;;;;;;22.26;59.12;99668.75;7310507;19;129455;-38
2023/04/20 03:35:17;;;;;;;63.42;4.18;;;;;;;22.34;59.08;99687.22;7308508;19;128901;-40
2023/04/20 03:37:42;;;;;;;50.33;2.88;;;;;;;22.08;58.76;99672.25;7313157;19;130100;-34
2023/04/20 03:40:09;;;;;;;46.97;2.85;;;;;;;21.72;57.93;99694.69;7309750;19;130489;-34
2023/04/20 03:42:34;;;;;;;;;;;;;;;21.62;58.34;99694.69;7312036;19;128887;-37
2023/04/20 03:44:59;;;;;;;45.55;2.88;;;;;;;21.67;58.20;99683.81;7309550;19;130053;-33
2023/04/20 03:47:25;;;;;;;54.58;3.47;;;;;;;21.79;57.84;99701.06;7310793;19;130790;-38
2023/04/20 03:49:50;;;;;;;53.47;3.13;;;;;;;21.80;57.63;99695.69;7309626;19;129240;-34
2023/04/20 03:52:15;;;;;;;21.85;1.65;;;;;;;21.90;57.99;99696.50;7312110;19;129358;-31
2023/04/20 03:54:41;;;;;;;35.20;2.22;;;;;;;21.98;57.72;99698.44;7310957;19;131179;-31
2023/04/20 03:57:06;;;;;;;51.20;3.15;;;;;;;21.92;57.61;99678.88;7310879;19;129978;-34
2023/04/20 03:59:31;;;;;;;61.10;3.87;;;;;;;22.09;57.21;99692.22;7307458;19;129244;-35
2023/04/20 04:01:57;;;;;;;28.50;1.83;;;;;;;22.13;57.26;99693.59;7307187;19;129698;-30
2023/04/20 04:04:23;;;;;;;30.47;2.00;;;;;;;22.17;57.16;99690.56;7305878;19;131238;-34
2023/04/20 04:06:48;;;;;;;73.13;4.22;;;;;;;22.25;56.52;99693.28;7303157;19;129388;-37
2023/04/20 04:09:13;;;;;;;48.80;3.15;;;;;;;22.29;56.48;99693.84;7308470;19;130795;-33
2023/04/20 04:11:39;;;;;;;66.07;4.18;;;;;;;22.40;56.89;99693.66;7305769;19;129481;-36
2023/04/20 04:14:04;;;;;;;53.03;3.23;;;;;;;22.44;56.88;99687.19;7309850;19;129210;-38
2023/04/20 04:16:31;;;;;;;69.95;4.15;;;;;;;22.44;56.44;99687.19;7303618;19;130420;-35
2023/04/20 04:18:56;;;;;;;48.55;2.72;;;;;;;22.37;56.83;99686.91;7310033;19;129353;-41
2023/04/20 04:21:22;;;;;;;41.37;2.53;;;;;;;22.43;56.65;99701.25;7307996;19;129239;-30
2023/04/20 04:23:48;;;;;;;46.25;2.60;;;;;;;22.40;56.97;99707.59;7304399;19;129343;-38
2023/04/20 04:26:13;;;;;;;47.58;3.10;;;;;;;22.39;56.44;99712.97;7305765;19;129974;-40
2023/04/20 04:28:39;;;;;;;60.95;3.65;;;;;;;22.32;56.59;99704.84;7308242;19;130170;-37
2023/04/20 04:31:05;;;;;;;24.83;1.63;;;;;;;22.34;56.64;99709.94;7308598;19;129153;-36
2023/04/20 04:33:35;;;;;;;68.85;4.20;;;;;;;22.30;57.22;99708.56;7307054;19;130067;-37
2023/04/20 04:36:01;;;;;;;22.05;1.60;;;;;;;22.31;56.69;99705.00;7307463;19;130249;-33
2023/04/20 04:38:26;;;;;;;57.97;3.33;;;;;;;22.24;57.30;99717.00;7307456;19;129402;-36
2023/04/20 04:40:52;;;;;;;51.28;3.13;;;;;;;22.22;57.53;99716.31;7306513;19;130006;-30
2023/04/20 04:43:18;;;;;;;194.23;11.60;;;;;;;22.21;57.35;99706.81;7304392;19;129509;-45
2023/04/20 04:45:44;;;;;;;42.53;2.50;;;;;;;22.18;57.41;99713.13;7306507;19;129262;-36
2023/04/20 04:48:10;;;;;;;31.13;2.23;;;;;;;22.16;57.50;99724.72;7311526;19;129683;-35
2023/04/20 04:50:37;;;;;;;51.28;3.30;;;;;;;22.11;57.56;99732.19;7314681;19;129101;-42
2023/04/20 04:53:02;;;;;;;57.67;3.53;;;;;;;22.07;56.76;99731.63;7313661;19;130006;-38
2023/04/20 04:55:28;;;;;;;50.85;3.40;;;;;;;22.03;57.56;99729.44;7313356;19;129333;-30
2023/04/20 04:57:53;;;;;;;52.92;3.33;;;;;;;22.02;57.56;99722.53;7311301;19;129579;-35
2023/04/20 05:00:19;;;;;;;114.50;6.93;;;;;;;22.02;57.63;99717.28;7310808;19;129080;-32
2023/04/20 05:02:44;;;;;;;57.70;3.53;;;;;;;21.98;57.23;99712.34;7311378;19;129368;-34
2023/04/20 05:05:09;;;;;;;128.57;7.85;;;;;;;22.04;57.46;99715.38;7310046;19;130924;-41
2023/04/20 05:07:35;;;;;;;51.88;3.22;;;;;;;22.09;57.30;99718.41;7308380;19;129250;-46
2023/04/20 05:10:00;;;;;;;49.10;3.03;;;;;;;22.15;57.42;99723.09;7307188;19;129701;-35
2023/04/20 05:12:25;;;;;;;86.60;5.03;;;;;;;22.18;57.07;99721.00;7311283;19;129286;-37
2023/04/20 05:14:52;;;;;;;77.93;4.50;;;;;;;22.26;57.37;99734.25;7307613;19;129675;-44
2023/04/20 05:17:17;;;;;;;73.90;4.57;;;;;;;22.33;56.94;99726.66;7309637;19;130769;-34
2023/04/20 05:19:42;;;;;;;62.80;3.58;;;;;;;22.35;56.75;99724.69;7303382;19;129796;-37
2023/04/20 05:22:08;;;;;;;67.95;3.90;;;;;;;22.34;56.83;99733.53;7310543;19;129344;-35
2023/04/20 05:24:33;;;;;;;38.20;2.50;;;;;;;22.37;57.14;99731.44;7312864;19;129797;-35
2023/04/20 05:26:59;;;;;;;54.30;3.33;;;;;;;22.37;56.89;99744.53;7307499;19;130301;-45
2023/04/20 05:29:24;;;;;;;39.07;2.53;;;;;;;22.27;56.66;99753.38;7311306;19;129456;-32
2023/04/20 05:31:50;;;;;;;62.00;3.97;;;;;;;22.23;57.28;99744.16;7310336;19;129847;-36
2023/04/20 05:34:15;;;;;;;22.08;1.58;;;;;;;22.09;57.17;99736.72;7313547;19;129809;-38
2023/04/20 05:36:40;;;;;;;31.85;2.33;;;;;;;22.08;58.51;99758.66;7315454;19;130341;-31
2023/04/20 05:39:06;;;;;;;61.80;3.60;;;;;;;22.01;57.97;99747.06;7314045;19;129438;-34
2023/04/20 05:41:31;;;;;;;41.50;2.73;;;;;;;22.12;57.38;99762.63;7315625;19;129067;-36
2023/04/20 05:43:57;;;;;;;41.57;2.60;;;;;;;22.11;57.21;99766.22;7313747;19;129481;-32
2023/04/20 05:46:22;;;;;;;25.80;1.80;;;;;;;22.08;57.49;99767.31;7316170;19;131311;-34
2023/04/20 05:48:48;;;;;;;52.13;3.05;;;;;;;22.06;57.55;99752.72;7314997;19;129764;-39
2023/04/20 05:51:13;;;;;;;26.45;1.88;;;;;;;22.14;57.37;99755.47;7316687;19;129186;-36
2023/04/20 05:53:39;;;;;;;37.10;2.47;;;;;;;22.16;57.73;99761.41;7315634;19;129798;-33
2023/04/20 05:56:05;;;;;;;37.55;2.55;;;;;;;22.26;57.51;99770.06;7314579;19;130405;-34
2023/04/20 05:58:31;;;;;;;49.97;3.20;;;;;;;22.30;56.67;99764.41;7312219;19;128911;-38
2023/04/20 06:00:57;;;;;;;30.23;2.05;;;;;;;22.43;56.72;99758.88;7316006;19;129171;-33
2023/04/20 06:03:22;;;;;;;26.60;1.73;;;;;;;22.45;56.81;99757.75;7313937;19;130170;-37
2023/04/20 06:05:48;;;;;;;31.75;2.05;;;;;;;22.48;56.86;99756.63;7314870;19;129857;-39
2023/04/20 06:08:13;;;;;;;42.30;2.67;;;;;;;22.48;56.50;99754.84;7315226;19;129498;-32
2023/04/20 06:10:39;;;;;;;38.35;2.58;;;;;;;22.45;56.89;99756.94;7314837;19;129028;-35
2023/04/20 06:13:04;;;;;;;39.33;2.65;;;;;;;22.40;56.54;99759.13;7314794;19;131070;-41
2023/04/20 06:15:30;;;;;;;32.05;2.15;;;;;;;22.37;57.04;99754.19;7315040;19;130505;-38
2023/04/20 06:17:55;;;;;;;54.07;3.17;;;;;;;22.25;56.99;99734.34;7315343;19;129452;-32
2023/04/20 06:20:21;;;;;;;40.20;2.47;;;;;;;22.25;57.36;99752.69;7315558;19;129707;-43
2023/04/20 06:22:47;;;;;;;25.73;1.88;;;;;;;22.20;58.12;99754.91;7313622;19;130669;-34
2023/04/20 06:25:14;;;;;;;71.20;4.30;;;;;;;22.14;57.86;99753.69;7313748;19;130434;-38
2023/04/20 06:27:39;;;;;;;41.97;2.50;;;;;;;22.15;58.45;99751.91;7314424;19;129993;-40
2023/04/20 06:30:05;;;;;;;32.53;2.17;;;;;;;22.15;57.55;99751.91;7311114;19;129354;-32
2023/04/20 06:32:30;;;;;;;26.52;1.98;;;;;;;22.16;57.30;99750.91;7312654;19;129185;-35
2023/04/20 06:34:56;;;;;;;49.72;3.10;;;;;;;22.16;57.06;99750.91;7313360;19;129547;-34
2023/04/20 06:37:21;;;;;;;41.85;2.65;;;;;;;22.21;57.09;99749.53;7313707;19;129700;-41
2023/04/20 06:39:46;;;;;;;32.77;2.30;;;;;;;22.26;57.69;99757.81;7311447;19;129037;-40
2023/04/20 06:42:12;;;;;;;40.83;2.47;;;;;;;22.29;57.62;99752.28;7314067;19;129238;-37
2023/04/20 06:44:38;;;;;;;46.77;2.83;;;;;;;22.36;57.11;99758.59;7314275;19;130477;-35
2023/04/20 06:47:04;;;;;;;31.58;2.15;;;;;;;22.39;57.12;99757.50;7314828;19;129043;-38
2023/04/20 06:49:30;;;;;;;14.03;1.20;;;;;;;22.48;56.78;99760.09;7312892;19;129758;-33
2023/04/20 06:51:55;;;;;;;30.63;2.07;;;;;;;22.50;56.93;99759.94;7313420;19;130077;-29
2023/04/20 06:54:20;;;;;;;63.17;3.78;;;;;;;22.50;56.49;99759.94;7313717;19;129265;-30
2023/04/20 06:56:46;;;;;;;28.25;1.85;;;;;;;22.42;56.44;99744.13;7314510;19;129771;-30
2023/04/20 06:59:11;;;;;;;36.10;2.37;;;;;;;22.48;56.56;99759.25;7313119;19;130238;-39
2023/04/20 07:01:36;;;;;;;34.07;2.13;;;;;;;22.43;56.67;99761.50;7312794;19;129109;-39
2023/04/20 07:04:01;;;;;;;29.03;2.03;;;;;;;22.37;57.05;99760.25;7312153;19;130028;-32
2023/04/20 07:06:27;;;;;;;34.78;2.25;;;;;;;22.32;57.70;99759.84;7313281;19;129043;-34
2023/04/20 07:08:52;;;;;;;37.83;2.37;;;;;;;22.27;56.68;99766.47;7311635;19;129692;-39
2023/04/20 07:11:18;;;;;;;40.53;2.70;;;;;;;22.23;58.04;99757.25;7312832;19;130276;-40
2023/04/20 07:13:43;;;;;;;36.93;2.17;;;;;;;22.19;58.67;99766.34;7313609;19;130260;-37
2023/04/20 07:16:09;;;;;;;56.80;3.20;;;;;;;22.23;57.74;99768.53;7313458;19;129712;-34
2023/04/20 07:18:35;;;;;;;23.65;1.65;;;;;;;22.24;57.35;99774.63;7312661;19;129165;-31
2023/04/20 07:21:00;;;;;;;38.60;2.40;;;;;;;22.22;57.45;99771.31;7312433;19;130226;-37
2023/04/20 07:23:26;;;;;;;75.90;4.40;;;;;;;22.25;57.69;99760.53;7310996;19;130080;-40
2023/04/20 07:25:51;;;;;;;29.48;2.03;;;;;;;22.29;57.11;99765.38;7313064;19;129717;-35
2023/04/20 07:28:16;;;;;;;33.75;2.13;;;;;;;22.36;57.38;99769.06;7311580;19;130909;-38
2023/04/20 07:30:42;;;;;;;49.95;2.97;;;;;;;22.41;56.94;99763.44;7312606;19;128977;-34
2023/04/20 07:33:08;;;;;;;31.88;2.22;;;;;;;22.44;56.65;99765.75;7312997;19;129492;-36
2023/04/20 07:35:33;;;;;;;35.92;2.50;;;;;;;22.42;56.36;99754.59;7311493;19;129132;-36
2023/04/20 07:37:58;;;;;;;33.53;2.15;;;;;;;22.51;57.15;99770.28;7312868;19;129700;-37
2023/04/20 07:40:24;;;;;;;61.08;3.65;;;;;;;22.55;57.19;99763.84;7310872;19;129101;-44
2023/04/20 07:42:50;;;;;;;65.97;4.05;;;;;;;22.55;56.21;99765.63;7312195;19;130748;-30
2023/04/20 07:45:15;;;;;;;71.57;4.53;;;;;;;22.53;56.83;99763.16;7310789;19;129218;-47
2023/04/20 07:47:43;;;;;;;41.97;2.65;;;;;;;22.46;56.96;99769.06;7312137;19;129161;-33
2023/04/20 07:50:09;;;;;;;50.05;3.03;;;;;;;22.46;56.91;99771.69;7308879;19;130351;-34
2023/04/20 07:52:35;;;;;;;33.53;2.33;;;;;;;22.38;57.63;99766.34;7312453;19;131788;-34
2023/04/20 07:55:00;;;;;;;37.13;2.50;;;;;;;22.31;57.34;99775.72;7312266;19;128972;-38
2023/04/20 07:57:27;;;;;;;33.17;2.17;;;;;;;22.28;57.51;99768.16;7310660;19;128920;-42
2023/04/20 07:59:52;;;;;;;46.03;2.95;;;;;;;22.24;57.53;99774.63;7310238;19;129159;-37
2023/04/20 08:02:17;;;;;;;29.17;2.00;;;;;;;22.21;57.98;99774.91;7312622;19;129581;-32
2023/04/20 08:04:43;;;;;;;31.08;2.17;;;;;;;22.23;57.28;99779.00;7308146;19;128849;-36
2023/04/20 08:07:09;;;;;;;28.88;2.00;;;;;;;22.24;58.09;99774.63;7311177;19;129419;-35
2023/04/20 08:09:35;;;;;;;60.25;3.63;;;;;;;22.17;57.74;99763.03;7308786;19;129573;-34
2023/04/20 08:12:00;;;;;;;24.88;1.77;;;;;;;22.31;57.85;99771.31;7310140;19;131072;-33
2023/04/20 08:14:26;;;;;;;35.00;2.17;;;;;;;22.28;57.44;99762.91;7311465;19;129053;-34
2023/04/20 08:16:51;;;;;;;67.07;4.00;;;;;;;22.39;56.96;99776.69;7310177;19;129131;-41
2023/04/20 08:19:17;;;;;;;20.57;1.50;;;;;;;22.48;56.95;99765.34;7309997;19;129089;-35
2023/04/20 08:21:42;;;;;;;44.20;2.90;;;;;;;22.49;56.67;99771.41;7313220;19;129699;-35
2023/04/20 08:24:08;;;;;;;32.10;2.30;;;;;;;22.43;56.58;99751.03;7314837;19;130674;-40
2023/04/20 08:26:34;;;;;;;27.15;2.00;;;;;;;22.50;57.03;99759.94;7317496;19;129069;-32
2023/04/20 08:29:00;;;;;;;28.87;1.93;;;;;;;22.47;56.96;99762.84;7317055;19;130314;-38
2023/04/20 08:31:26;;;;;;;24.10;1.70;;;;;;;22.46;57.25;99759.41;7317441;19;130384;-38
2023/04/20 08:33:51;;;;;;;40.17;2.53;;;;;;;22.40;57.59;99761.75;7316052;19;129601;-34
2023/04/20 08:36:17;;;;;;;51.53;2.93;;;;;;;22.35;57.10;99761.34;7317045;19;129185;-37
2023/04/20 08:38:43;;;;;;;42.57;2.83;;;;;;;22.20;57.11;99747.03;7316258;19;130506;-35
2023/04/20 08:41:12;;;;;;;33.97;2.20;;;;;;;22.25;57.99;99765.78;7316764;19;130828;-38
2023/04/20 08:43:37;;;;;;;24.98;1.65;;;;;;;22.23;57.87;99768.53;7315416;19;129234;-38
2023/04/20 08:46:03;;;;;;;47.33;3.13;;;;;;;22.26;58.02;99767.44;7315998;19;129139;-40
2023/04/20 08:48:35;;;;;;;25.67;1.93;;;;;;;22.18;57.97;99754.22;7317473;19;129887;-39
2023/04/20 08:51:02;;;;;;;26.92;2.00;;;;;;;22.33;57.26;99774.59;7315527;19;130623;-38
2023/04/20 08:53:28;;;;;;;28.52;1.90;;;;;;;22.34;57.65;99778.06;7316406;19;129023;-38
2023/04/20 08:55:55;;;;;;;50.80;2.97;;;;;;;22.36;57.29;99778.75;7315665;19;130106;-41
2023/04/20 08:58:22;;;;;;;42.30;2.72;;;;;;;22.41;57.68;99776.53;7316154;19;130323;-37
2023/04/20 09:00:48;;;;;;;18.38;1.42;;;;;;;22.40;57.38;99764.38;7315622;19;129916;-37
2023/04/20 09:03:13;;;;;;;42.10;2.65;;;;;;;22.52;57.06;99778.97;7314525;19;131168;-42
2023/04/20 09:05:39;;;;;;;53.67;3.30;;;;;;;22.58;56.97;99775.81;7315667;19;129188;-37
2023/04/20 09:08:05;;;;;;;35.30;2.25;;;;;;;22.60;57.13;99771.28;7315967;19;129364;-39
2023/04/20 09:10:43;;;;;;;48.08;2.83;;;;;;;22.61;56.89;99759.84;7316271;19;130355;-38
2023/04/20 09:13:21;;;;;;;12.43;1.23;;;;;;;22.53;56.99;99759.69;7315506;19;128964;-40
2023/04/20 09:15:46;;;;;;;23.92;1.80;;;;;;;22.53;56.88;99764.94;7315650;19;129470;-38
2023/04/20 09:18:14;;;;;;;47.95;3.08;;;;;;;22.50;57.43;99765.19;7315671;19;129896;-39
2023/04/20 09:20:39;;;;;;;22.63;1.67;;;;;;;22.40;57.49;99772.25;7316208;19;130409;-39
2023/04/20 09:23:12;;;;;;;28.70;1.87;;;;;;;22.39;58.11;99778.47;7315703;19;129264;-38
2023/04/20 09:25:39;;;;;;;22.73;1.95;;;;;;;22.35;57.81;99777.06;7314525;19;128903;-40
2023/04/20 09:28:05;;;;;;;46.58;2.85;;;;;;;22.27;57.89;99779.56;7315571;19;131547;-39
2023/04/20 09:30:37;;;;;;;30.13;2.10;;;;;;;22.25;58.49;99778.88;7315260;19;130436;-39
2023/04/20 09:33:04;;;;;;;44.90;2.75;;;;;;;22.28;57.55;99784.66;7313507;19;130221;-36
2023/04/20 09:35:30;;;;;;;;;;;;;;;22.31;58.11;99784.41;7315207;19;130758;-37
2023/04/20 09:37:55;;;;;;;56.60;3.38;;;;;;;22.33;57.91;99779.03;7315789;19;130831;-38
2023/04/20 09:40:23;;;;;;;44.80;2.85;;;;;;;22.39;57.65;99774.06;7315482;19;130341;-37
2023/04/20 09:42:50;;;;;;;39.38;2.72;;;;;;;22.46;57.16;99772.50;7314836;19;129107;-39
2023/04/20 09:45:16;;;;;;;56.58;3.70;;;;;;;22.52;56.80;99763.25;7313993;19;129044;-41
2023/04/20 09:47:43;;;;;;;33.58;2.30;;;;;;;22.55;56.82;99757.75;7315320;19;130237;-40
2023/04/20 09:50:11;;;;;;;;;;;;;;;22.56;57.41;99754.19;7313063;19;129640;-38
2023/04/20 09:52:37;;;;;;;6.22;0.90;;;;;;;22.55;57.44;99749.91;7316018;19;129673;-38
2023/04/20 09:55:05;;;;;;;32.37;2.47;;;;;;;22.52;57.31;99747.53;7314672;19;129085;-38
2023/04/20 09:57:31;;;;;;;24.30;1.75;;;;;;;22.53;56.79;99749.22;7314403;19;130605;-35
2023/04/20 09:59:58;;;;;;;40.97;2.67;;;;;;;22.48;57.05;99754.84;7311835;19;129674;-39
2023/04/20 10:02:24;;;;;;;34.60;2.40;;;;;;;22.43;57.10;99753.66;7315805;19;129687;-38
2023/04/20 10:04:57;;;;;;;30.77;1.97;;;;;;;22.41;57.52;99752.97;7312085;19;128878;-37
2023/04/20 10:07:27;;;;;;;47.63;3.30;;;;;;;22.32;58.06;99753.78;7313055;19;130649;-37
2023/04/20 10:10:13;;;;;;;40.55;2.45;;;;;;;22.31;58.17;99754.75;7311371;19;129577;-36
2023/04/20 10:12:52;;;;;;;54.67;3.42;;;;;;;22.26;58.05;99751.72;7314157;19;128772;-39
2023/04/20 10:15:19;;;;;;;44.83;2.88;;;;;;;22.29;57.92;99754.06;7314274;19;129027;-40
2023/04/20 10:17:44;;;;;;;40.67;2.92;;;;;;;22.34;57.90;99751.84;7315123;19;130234;-39
2023/04/20 10:20:25;;;;;;;25.15;1.92;;;;;;;22.35;57.71;99748.25;7311073;19;131030;-37
2023/04/20 10:22:52;;;;;;;54.15;3.45;;;;;;;22.34;57.58;99742.22;7313894;19;129412;-35
2023/04/20 10:25:23;;;;;;;58.05;3.75;;;;;;;22.34;57.66;99728.28;7313282;19;129079;-37
2023/04/20 10:27:54;;;;;;;43.75;2.83;;;;;;;22.47;57.26;99740.13;7314125;19;130128;-40
2023/04/20 10:30:20;;;;;;;30.98;2.03;;;;;;;22.49;57.44;99730.31;7314309;19;130846;-38
2023/04/20 10:32:45;;;;;;;20.52;1.70;;;;;;;22.60;56.82;99732.81;7313952;19;129124;-39
2023/04/20 10:35:12;;;;;;;53.83;3.60;;;;;;;22.63;56.71;99731.66;7312715;19;129273;-39
2023/04/20 10:37:49;;;;;;;41.13;2.53;;;;;;;22.49;57.36;99713.78;7312970;19;130759;-36
2023/04/20 10:40:15;;;;;;;25.67;1.80;;;;;;;22.59;57.50;99732.94;7311404;19;130246;-38
2023/04/20 10:42:44;;;;;;;26.13;2.10;;;;;;;22.57;56.59;99740.94;7314117;19;129536;-36
2023/04/20 10:45:10;;;;;;;26.35;2.35;;;;;;;22.55;56.89;99739.44;7309826;19;130873;-37
2023/04/20 10:47:36;;;;;;;48.45;3.13;;;;;;;22.47;57.33;99736.66;7314020;19;130597;-36
2023/04/20 10:50:10;;;;;;;40.80;2.83;;;;;;;22.39;57.57;99731.31;7310896;19;130784;-37
2023/04/20 10:52:37;;;;;;;27.45;1.95;;;;;;;22.36;57.91;99726.34;7313876;19;128881;-36
2023/04/20 10:55:04;;;;;;;37.80;2.63;;;;;;;22.32;57.50;99727.59;7312608;19;130063;-38
2023/04/20 10:57:29;;;;;;;;;;;;;;;22.29;58.72;99733.13;7313309;19;130879;-37
2023/04/20 10:59:54;;;;;;;33.72;2.28;;;;;;;22.30;58.25;99729.53;7311258;19;130801;-36
2023/04/20 11:02:20;;;;;;;31.55;2.60;;;;;;;22.28;57.37;99718.38;7312872;19;128796;-39
2023/04/20 11:04:45;;;;;;;50.50;3.33;;;;;;;22.36;57.65;99726.34;7310187;19;130055;-39
2023/04/20 11:07:14;;;;;;;38.80;2.60;;;;;;;22.44;57.14;99723.84;7311611;19;129404;-39
2023/04/20 11:09:41;;;;;;;39.65;2.67;;;;;;;22.41;57.63;99717.09;7310142;19;129932;-37
2023/04/20 11:12:08;;;;;;;26.52;1.85;;;;;;;22.53;57.39;99728.25;7313108;19;128802;-39
2023/04/20 11:14:49;;;;;;;34.17;2.53;;;;;;;22.51;57.68;99714.47;7311985;19;129368;-36